sensor_id;sensor_type;location;lat;lon;timestamp;pressure;altitude;pressure_sealevel;temperature;humidity
43814;BME280;29669;55.706;37.656;2022-11-20T00:03:54;100012.41;;;0.18;69.35
43814;BME280;29669;55.706;37.656;2022-11-20T00:06:41;100023.53;;;0.17;69.49
43814;BME280;29669;55.706;37.656;2022-11-20T00:09:29;100019.53;;;0.13;69.23
43814;BME280;29669;55.706;37.656;2022-11-20T00:12:16;100017.06;;;0.11;69.36
43814;BME280;29669;55.706;37.656;2022-11-20T00:15:04;100022.22;;;0.10;69.30
43814;BME280;29669;55.706;37.656;2022-11-20T00:17:51;100029.88;;;0.10;69.38
43814;BME280;29669;55.706;37.656;2022-11-20T00:20:39;100024.97;;;0.07;69.51
43814;BME280;29669;55.706;37.656;2022-11-20T00:23:26;100023.25;;;0.07;69.47
43814;BME280;29669;55.706;37.656;2022-11-20T00:26:14;100018.25;;;0.06;69.57
43814;BME280;29669;55.706;37.656;2022-11-20T00:29:02;100024.16;;;0.06;69.55
43814;BME280;29669;55.706;37.656;2022-11-20T00:31:50;100023.34;;;0.06;69.49
43814;BME280;29669;55.706;37.656;2022-11-20T00:34:37;100023.34;;;0.06;69.58
43814;BME280;29669;55.706;37.656;2022-11-20T00:37:24;100026.81;;;0.05;69.54
43814;BME280;29669;55.706;37.656;2022-11-20T00:40:12;100022.63;;;0.04;69.45
43814;BME280;29669;55.706;37.656;2022-11-20T00:42:59;100024.44;;;0.02;69.41
43814;BME280;29669;55.706;37.656;2022-11-20T00:45:47;100027.97;;;-0.01;69.64
43814;BME280;29669;55.706;37.656;2022-11-20T00:48:34;100028.81;;;-0.01;69.57
43814;BME280;29669;55.706;37.656;2022-11-20T00:51:22;100032.25;;;-0.02;69.65
43814;BME280;29669;55.706;37.656;2022-11-20T00:54:10;100024.78;;;-0.05;69.57
43814;BME280;29669;55.706;37.656;2022-11-20T00:56:57;100034.06;;;-0.04;69.57
43814;BME280;29669;55.706;37.656;2022-11-20T00:59:45;100028.06;;;-0.03;69.61
43814;BME280;29669;55.706;37.656;2022-11-20T01:02:32;100024.69;;;-0.03;69.65
43814;BME280;29669;55.706;37.656;2022-11-20T01:05:19;100026.53;;;-0.05;69.58
43814;BME280;29669;55.706;37.656;2022-11-20T01:08:07;100033.34;;;-0.06;69.60
43814;BME280;29669;55.706;37.656;2022-11-20T01:10:58;100029.25;;;-0.08;69.60
43814;BME280;29669;55.706;37.656;2022-11-20T01:13:46;100038.53;;;-0.07;69.53
43814;BME280;29669;55.706;37.656;2022-11-20T01:16:35;100027.59;;;-0.09;69.76
43814;BME280;29669;55.706;37.656;2022-11-20T01:19:23;100030.97;;;-0.09;69.70
43814;BME280;29669;55.706;37.656;2022-11-20T01:22:11;100029.34;;;-0.10;69.66
43814;BME280;29669;55.706;37.656;2022-11-20T01:24:58;100022.69;;;-0.12;69.62
43814;BME280;29669;55.706;37.656;2022-11-20T01:27:46;100026.13;;;-0.13;69.55
43814;BME280;29669;55.706;37.656;2022-11-20T01:30:33;100028.88;;;-0.16;69.57
43814;BME280;29669;55.706;37.656;2022-11-20T01:33:20;100031.53;;;-0.18;69.53
43814;BME280;29669;55.706;37.656;2022-11-20T01:36:08;100030.69;;;-0.18;69.54
43814;BME280;29669;55.706;37.656;2022-11-20T01:38:57;100033.50;;;-0.23;69.49
43814;BME280;29669;55.706;37.656;2022-11-20T01:41:45;100043.88;;;-0.26;69.64
43814;BME280;29669;55.706;37.656;2022-11-20T01:44:57;100029.66;;;-0.30;69.58
43814;BME280;29669;55.706;37.656;2022-11-20T01:47:45;100044.34;;;-0.33;69.64
43814;BME280;29669;55.706;37.656;2022-11-20T01:50:33;100044.44;;;-0.35;69.55
43814;BME280;29669;55.706;37.656;2022-11-20T01:53:21;100042.03;;;-0.38;69.62
43814;BME280;29669;55.706;37.656;2022-11-20T01:56:12;100056.59;;;-0.40;69.61
43814;BME280;29669;55.706;37.656;2022-11-20T01:59:01;100047.22;;;-0.39;69.75
43814;BME280;29669;55.706;37.656;2022-11-20T02:01:51;100056.59;;;-0.40;69.53
43814;BME280;29669;55.706;37.656;2022-11-20T02:04:39;100069.44;;;-0.41;69.64
43814;BME280;29669;55.706;37.656;2022-11-20T02:07:26;100069.28;;;-0.38;69.69
43814;BME280;29669;55.706;37.656;2022-11-20T02:10:15;100067.38;;;-0.35;69.86
43814;BME280;29669;55.706;37.656;2022-11-20T02:13:02;100068.13;;;-0.33;69.73
43814;BME280;29669;55.706;37.656;2022-11-20T02:19:11;100076.50;;;-0.31;69.68
43814;BME280;29669;55.706;37.656;2022-11-20T02:22:20;100073.94;;;-0.31;69.63
43814;BME280;29669;55.706;37.656;2022-11-20T02:25:08;100077.28;;;-0.30;69.59
43814;BME280;29669;55.706;37.656;2022-11-20T02:27:57;100081.59;;;-0.31;69.70
43814;BME280;29669;55.706;37.656;2022-11-20T02:30:44;100084.06;;;-0.29;69.59
43814;BME280;29669;55.706;37.656;2022-11-20T02:33:31;100095.09;;;-0.29;69.71
43814;BME280;29669;55.706;37.656;2022-11-20T02:36:19;100094.25;;;-0.29;69.56
43814;BME280;29669;55.706;37.656;2022-11-20T02:39:06;100100.19;;;-0.29;69.82
43814;BME280;29669;55.706;37.656;2022-11-20T02:41:54;100100.19;;;-0.29;69.79
43814;BME280;29669;55.706;37.656;2022-11-20T02:44:43;100090.97;;;-0.31;69.76
43814;BME280;29669;55.706;37.656;2022-11-20T02:47:30;100099.53;;;-0.32;69.73
43814;BME280;29669;55.706;37.656;2022-11-20T02:50:17;100093.63;;;-0.33;69.73
43814;BME280;29669;55.706;37.656;2022-11-20T02:53:05;100095.34;;;-0.33;69.73
43814;BME280;29669;55.706;37.656;2022-11-20T02:55:53;100096.16;;;-0.33;69.88
43814;BME280;29669;55.706;37.656;2022-11-20T02:58:40;100088.66;;;-0.36;69.83
43814;BME280;29669;55.706;37.656;2022-11-20T03:01:28;100100.63;;;-0.36;69.72
43814;BME280;29669;55.706;37.656;2022-11-20T03:04:15;100096.41;;;-0.37;69.77
43814;BME280;29669;55.706;37.656;2022-11-20T03:07:03;100100.69;;;-0.38;69.71
43814;BME280;29669;55.706;37.656;2022-11-20T03:09:51;100100.03;;;-0.41;69.67
43814;BME280;29669;55.706;37.656;2022-11-20T03:12:38;100106.16;;;-0.44;69.73
43814;BME280;29669;55.706;37.656;2022-11-20T03:15:25;100105.31;;;-0.44;69.79
43814;BME280;29669;55.706;37.656;2022-11-20T03:18:13;100107.78;;;-0.43;69.95
43814;BME280;29669;55.706;37.656;2022-11-20T03:21:01;100100.88;;;-0.41;69.77
43814;BME280;29669;55.706;37.656;2022-11-20T03:23:49;100107.78;;;-0.43;69.82
43814;BME280;29669;55.706;37.656;2022-11-20T03:26:36;100114.69;;;-0.45;69.87
43814;BME280;29669;55.706;37.656;2022-11-20T03:29:23;100112.13;;;-0.45;69.86
43814;BME280;29669;55.706;37.656;2022-11-20T03:32:11;100118.06;;;-0.44;69.80
43814;BME280;29669;55.706;37.656;2022-11-20T03:34:58;100113.84;;;-0.45;69.94
43814;BME280;29669;55.706;37.656;2022-11-20T03:37:46;100111.25;;;-0.44;69.91
43814;BME280;29669;55.706;37.656;2022-11-20T03:40:33;100109.59;;;-0.45;69.85
43814;BME280;29669;55.706;37.656;2022-11-20T03:43:21;100108.13;;;-0.49;69.90
43814;BME280;29669;55.706;37.656;2022-11-20T03:46:09;100109.91;;;-0.51;69.78
43814;BME280;29669;55.706;37.656;2022-11-20T03:48:56;100115.03;;;-0.51;69.91
43814;BME280;29669;55.706;37.656;2022-11-20T03:51:44;100122.75;;;-0.52;69.93
43814;BME280;29669;55.706;37.656;2022-11-20T03:54:31;100123.59;;;-0.52;69.84
43814;BME280;29669;55.706;37.656;2022-11-20T03:57:19;100123.41;;;-0.49;69.99
43814;BME280;29669;55.706;37.656;2022-11-20T04:00:06;100135.28;;;-0.48;69.85
43814;BME280;29669;55.706;37.656;2022-11-20T04:02:53;100133.50;;;-0.47;69.92
43814;BME280;29669;55.706;37.656;2022-11-20T04:05:44;100135.91;;;-0.44;70.07
43814;BME280;29669;55.706;37.656;2022-11-20T04:08:31;100134.94;;;-0.42;69.83
43814;BME280;29669;55.706;37.656;2022-11-20T04:14:11;100136.56;;;-0.41;69.92
43814;BME280;29669;55.706;37.656;2022-11-20T04:16:59;100142.50;;;-0.40;69.80
43814;BME280;29669;55.706;37.656;2022-11-20T04:19:46;100150.06;;;-0.39;69.91
43814;BME280;29669;55.706;37.656;2022-11-20T04:22:34;100149.06;;;-0.36;69.83
43814;BME280;29669;55.706;37.656;2022-11-20T04:25:21;100145.78;;;-0.38;69.97
43814;BME280;29669;55.706;37.656;2022-11-20T04:28:09;100146.66;;;-0.39;69.83
43814;BME280;29669;55.706;37.656;2022-11-20T04:31:03;100154.41;;;-0.41;69.87
43814;BME280;29669;55.706;37.656;2022-11-20T04:33:51;100154.50;;;-0.42;69.83
43814;BME280;29669;55.706;37.656;2022-11-20T04:36:38;100154.50;;;-0.42;69.75
43814;BME280;29669;55.706;37.656;2022-11-20T04:39:25;100161.22;;;-0.41;69.81
43814;BME280;29669;55.706;37.656;2022-11-20T04:42:13;100168.09;;;-0.42;69.90
43814;BME280;29669;55.706;37.656;2022-11-20T04:45:15;100168.09;;;-0.42;70.12
43814;BME280;29669;55.706;37.656;2022-11-20T04:48:03;100182.28;;;-0.38;69.94
43814;BME280;29669;55.706;37.656;2022-11-20T04:50:51;100183.03;;;-0.36;69.88
43814;BME280;29669;55.706;37.656;2022-11-20T04:53:38;100186.41;;;-0.35;69.89
43814;BME280;29669;55.706;37.656;2022-11-20T04:56:26;100193.22;;;-0.36;69.97
43814;BME280;29669;55.706;37.656;2022-11-20T04:59:13;100185.75;;;-0.39;69.71
43814;BME280;29669;55.706;37.656;2022-11-20T05:02:01;100191.75;;;-0.40;69.84
43814;BME280;29669;55.706;37.656;2022-11-20T05:04:48;100185.00;;;-0.41;69.79
43814;BME280;29669;55.706;37.656;2022-11-20T05:07:36;100196.84;;;-0.40;69.85
43814;BME280;29669;55.706;37.656;2022-11-20T05:10:24;100195.31;;;-0.42;70.02
43814;BME280;29669;55.706;37.656;2022-11-20T05:13:12;100204.66;;;-0.43;69.98
43814;BME280;29669;55.706;37.656;2022-11-20T05:16:03;100197.94;;;-0.44;69.90
43814;BME280;29669;55.706;37.656;2022-11-20T05:18:51;100206.47;;;-0.45;69.96
43814;BME280;29669;55.706;37.656;2022-11-20T05:21:39;100209.03;;;-0.45;69.88
43814;BME280;29669;55.706;37.656;2022-11-20T05:24:26;100211.66;;;-0.46;69.92
43814;BME280;29669;55.706;37.656;2022-11-20T05:27:14;100215.84;;;-0.45;69.87
43814;BME280;29669;55.706;37.656;2022-11-20T05:30:01;100212.50;;;-0.46;70.02
43814;BME280;29669;55.706;37.656;2022-11-20T05:32:50;100223.44;;;-0.44;70.05
43814;BME280;29669;55.706;37.656;2022-11-20T05:35:39;100225.81;;;-0.41;69.89
43814;BME280;29669;55.706;37.656;2022-11-20T05:38:26;100234.19;;;-0.39;69.85
43814;BME280;29669;55.706;37.656;2022-11-20T05:41:14;100230.72;;;-0.38;69.96
43814;BME280;29669;55.706;37.656;2022-11-20T05:44:02;100234.78;;;-0.34;69.80
43814;BME280;29669;55.706;37.656;2022-11-20T05:46:50;100227.94;;;-0.33;69.85
43814;BME280;29669;55.706;37.656;2022-11-20T05:49:38;100238.97;;;-0.33;69.89
43814;BME280;29669;55.706;37.656;2022-11-20T05:52:29;100241.34;;;-0.30;70.01
43814;BME280;29669;55.706;37.656;2022-11-20T05:55:16;100242.94;;;-0.27;69.90
43814;BME280;29669;55.706;37.656;2022-11-20T05:58:04;100253.94;;;-0.27;69.77
43814;BME280;29669;55.706;37.656;2022-11-20T06:00:51;100257.16;;;-0.23;69.82
43814;BME280;29669;55.706;37.656;2022-11-20T06:03:39;100263.66;;;-0.18;69.84
43814;BME280;29669;55.706;37.656;2022-11-20T06:06:27;100269.31;;;-0.13;69.70
43814;BME280;29669;55.706;37.656;2022-11-20T06:09:14;100273.34;;;-0.09;69.65
43814;BME280;29669;55.706;37.656;2022-11-20T06:12:02;100269.00;;;-0.07;69.66
43814;BME280;29669;55.706;37.656;2022-11-20T06:14:49;100263.66;;;-0.02;69.57
43814;BME280;29669;55.706;37.656;2022-11-20T06:17:37;100278.88;;;-0.01;69.54
43814;BME280;29669;55.706;37.656;2022-11-20T06:20:24;100278.03;;;-0.01;69.56
43814;BME280;29669;55.706;37.656;2022-11-20T06:23:11;100283.13;;;-0.01;69.65
43814;BME280;29669;55.706;37.656;2022-11-20T06:26:06;100287.25;;;0.02;69.33
43814;BME280;29669;55.706;37.656;2022-11-20T06:28:54;100297.56;;;0.00;69.62
43814;BME280;29669;55.706;37.656;2022-11-20T06:31:43;100300.13;;;0.00;69.62
43814;BME280;29669;55.706;37.656;2022-11-20T06:34:30;100311.84;;;0.03;69.70
43814;BME280;29669;55.706;37.656;2022-11-20T06:37:19;100307.34;;;0.08;69.63
43814;BME280;29669;55.706;37.656;2022-11-20T06:40:07;100308.81;;;0.12;69.54
43814;BME280;29669;55.706;37.656;2022-11-20T06:42:54;100306.19;;;0.13;69.37
43814;BME280;29669;55.706;37.656;2022-11-20T06:45:43;100299.41;;;0.12;69.23
43814;BME280;29669;55.706;37.656;2022-11-20T06:48:30;100308.00;;;0.11;69.35
43814;BME280;29669;55.706;37.656;2022-11-20T06:51:17;100291.69;;;0.14;69.52
43814;BME280;29669;55.706;37.656;2022-11-20T06:54:05;100294.88;;;0.17;69.17
43814;BME280;29669;55.706;37.656;2022-11-20T06:56:53;100294.97;;;0.16;69.35
43814;BME280;29669;55.706;37.656;2022-11-20T06:59:40;100301.72;;;0.17;69.23
43814;BME280;29669;55.706;37.656;2022-11-20T07:02:27;100304.28;;;0.17;69.39
43814;BME280;29669;55.706;37.656;2022-11-20T07:05:15;100304.84;;;0.22;69.26
43814;BME280;29669;55.706;37.656;2022-11-20T07:08:03;100305.41;;;0.27;69.17
43814;BME280;29669;55.706;37.656;2022-11-20T07:10:50;100303.09;;;0.38;69.34
43814;BME280;29669;55.706;37.656;2022-11-20T07:13:37;100293.63;;;0.40;69.16
43814;BME280;29669;55.706;37.656;2022-11-20T07:16:25;100288.88;;;0.48;69.09
43814;BME280;29669;55.706;37.656;2022-11-20T07:19:12;100286.44;;;0.46;69.01
43814;BME280;29669;55.706;37.656;2022-11-20T07:22:00;100299.00;;;0.49;68.82
43814;BME280;29669;55.706;37.656;2022-11-20T07:24:47;100313.34;;;0.52;69.04
43814;BME280;29669;55.706;37.656;2022-11-20T07:27:35;100317.56;;;0.53;69.02
43814;BME280;29669;55.706;37.656;2022-11-20T07:30:23;100306.41;;;0.54;68.85
43814;BME280;29669;55.706;37.656;2022-11-20T07:33:10;100297.88;;;0.55;68.85
43814;BME280;29669;55.706;37.656;2022-11-20T07:35:58;100310.53;;;0.56;68.76
43814;BME280;29669;55.706;37.656;2022-11-20T07:38:46;100309.53;;;0.59;68.67
43814;BME280;29669;55.706;37.656;2022-11-20T07:41:33;100305.25;;;0.59;68.70
43814;BME280;29669;55.706;37.656;2022-11-20T07:44:21;100306.91;;;0.60;68.78
43814;BME280;29669;55.706;37.656;2022-11-20T07:47:08;100314.47;;;0.62;68.72
43814;BME280;29669;55.706;37.656;2022-11-20T07:49:55;100326.06;;;0.67;68.62
43814;BME280;29669;55.706;37.656;2022-11-20T07:52:43;100323.28;;;0.72;68.60
43814;BME280;29669;55.706;37.656;2022-11-20T07:55:30;100327.28;;;0.76;68.62
43814;BME280;29669;55.706;37.656;2022-11-20T07:58:18;100324.66;;;0.77;68.61
43814;BME280;29669;55.706;37.656;2022-11-20T08:01:07;100321.19;;;0.78;68.57
43814;BME280;29669;55.706;37.656;2022-11-20T08:03:55;100324.66;;;0.77;68.74
43814;BME280;29669;55.706;37.656;2022-11-20T08:06:42;100329.38;;;0.83;68.73
43814;BME280;29669;55.706;37.656;2022-11-20T08:09:29;100331.50;;;0.91;68.45
43814;BME280;29669;55.706;37.656;2022-11-20T08:12:20;100337.44;;;0.91;68.50
43814;BME280;29669;55.706;37.656;2022-11-20T08:15:27;100338.28;;;0.92;68.49
43814;BME280;29669;55.706;37.656;2022-11-20T08:18:14;100344.88;;;0.96;68.42
43814;BME280;29669;55.706;37.656;2022-11-20T08:21:18;100341.19;;;0.86;68.46
43814;BME280;29669;55.706;37.656;2022-11-20T08:24:06;100338.88;;;0.81;68.66
43814;BME280;29669;55.706;37.656;2022-11-20T08:26:56;100337.63;;;0.88;68.74
43814;BME280;29669;55.706;37.656;2022-11-20T08:29:44;100342.41;;;0.94;68.50
43814;BME280;29669;55.706;37.656;2022-11-20T08:32:31;100342.84;;;1.01;68.57
43814;BME280;29669;55.706;37.656;2022-11-20T08:35:21;100346.97;;;1.04;68.38
43814;BME280;29669;55.706;37.656;2022-11-20T08:38:09;100338.03;;;1.11;68.35
43814;BME280;29669;55.706;37.656;2022-11-20T08:41:00;100342.88;;;1.15;68.23
43814;BME280;29669;55.706;37.656;2022-11-20T08:44:09;100342.69;;;1.18;68.13
43814;BME280;29669;55.706;37.656;2022-11-20T08:46:57;100355.22;;;1.23;68.05
43814;BME280;29669;55.706;37.656;2022-11-20T08:49:44;100355.81;;;1.12;67.95
43814;BME280;29669;55.706;37.656;2022-11-20T08:52:32;100357.66;;;1.10;68.29
43814;BME280;29669;55.706;37.656;2022-11-20T08:55:26;100367.72;;;1.13;68.24
43814;BME280;29669;55.706;37.656;2022-11-20T08:58:14;100368.34;;;1.17;68.05
43814;BME280;29669;55.706;37.656;2022-11-20T09:01:02;100384.34;;;1.20;68.14
43814;BME280;29669;55.706;37.656;2022-11-20T09:03:57;100387.53;;;1.24;68.06
43814;BME280;29669;55.706;37.656;2022-11-20T09:06:47;100386.72;;;1.23;67.92
43814;BME280;29669;55.706;37.656;2022-11-20T09:09:38;100400.66;;;1.18;67.88
43814;BME280;29669;55.706;37.656;2022-11-20T09:12:26;100395.50;;;1.19;68.03
43814;BME280;29669;55.706;37.656;2022-11-20T09:15:14;100398.75;;;1.21;67.82
43814;BME280;29669;55.706;37.656;2022-11-20T09:18:04;100407.44;;;1.19;67.87
43814;BME280;29669;55.706;37.656;2022-11-20T09:20:55;100411.91;;;1.15;67.90
43814;BME280;29669;55.706;37.656;2022-11-20T09:23:43;100406.41;;;1.07;67.97
43814;BME280;29669;55.706;37.656;2022-11-20T09:26:32;100425.63;;;0.98;68.14
43814;BME280;29669;55.706;37.656;2022-11-20T09:29:20;100428.28;;;0.97;68.33
43814;BME280;29669;55.706;37.656;2022-11-20T09:32:09;100441.97;;;0.96;68.29
43814;BME280;29669;55.706;37.656;2022-11-20T09:34:57;100446.34;;;0.94;68.35
43814;BME280;29669;55.706;37.656;2022-11-20T09:37:45;100442.81;;;0.97;68.27
43814;BME280;29669;55.706;37.656;2022-11-20T09:40:34;100445.09;;;1.01;68.52
43814;BME280;29669;55.706;37.656;2022-11-20T09:43:37;100445.28;;;0.98;68.30
43814;BME280;29669;55.706;37.656;2022-11-20T09:46:35;100434.56;;;0.91;68.53
43814;BME280;29669;55.706;37.656;2022-11-20T09:52:26;100443.28;;;1.03;68.44
43814;BME280;29669;55.706;37.656;2022-11-20T09:55:20;100442.28;;;1.06;68.14
43814;BME280;29669;55.706;37.656;2022-11-20T09:58:26;100439.53;;;1.09;68.31
43814;BME280;29669;55.706;37.656;2022-11-20T10:01:17;100441.13;;;1.11;68.17
43814;BME280;29669;55.706;37.656;2022-11-20T10:04:10;100440.38;;;1.09;68.32
43814;BME280;29669;55.706;37.656;2022-11-20T10:07:06;100437.63;;;1.12;68.39
43814;BME280;29669;55.706;37.656;2022-11-20T10:10:22;100441.75;;;1.15;68.30
43814;BME280;29669;55.706;37.656;2022-11-20T10:16:21;100438.56;;;1.11;68.37
43814;BME280;29669;55.706;37.656;2022-11-20T10:31:36;100458.84;;;0.98;68.73
43814;BME280;29669;55.706;37.656;2022-11-20T10:37:25;100468.19;;;0.84;68.97
43814;BME280;29669;55.706;37.656;2022-11-20T10:43:10;100455.59;;;0.81;69.15
43814;BME280;29669;55.706;37.656;2022-11-20T10:46:04;100462.88;;;0.73;68.79
43814;BME280;29669;55.706;37.656;2022-11-20T10:48:53;100460.91;;;0.62;69.28
43814;BME280;29669;55.706;37.656;2022-11-20T10:52:25;100461.81;;;0.61;69.43
43814;BME280;29669;55.706;37.656;2022-11-20T10:55:05;100478.63;;;0.65;69.56
43814;BME280;29669;55.706;37.656;2022-11-20T11:01:16;100480.75;;;0.73;69.50
43814;BME280;29669;55.706;37.656;2022-11-20T11:04:07;100481.66;;;0.72;69.43
43814;BME280;29669;55.706;37.656;2022-11-20T11:07:17;100482.00;;;0.66;69.46
43814;BME280;29669;55.706;37.656;2022-11-20T11:10:15;100481.16;;;0.65;69.53
43814;BME280;29669;55.706;37.656;2022-11-20T11:13:04;100491.28;;;0.67;69.35
43814;BME280;29669;55.706;37.656;2022-11-20T11:15:53;100494.78;;;0.66;69.34
43814;BME280;29669;55.706;37.656;2022-11-20T11:18:40;100496.25;;;0.70;69.25
43814;BME280;29669;55.706;37.656;2022-11-20T11:21:29;100495.50;;;0.68;69.16
43814;BME280;29669;55.706;37.656;2022-11-20T11:27:28;100497.78;;;0.57;69.00
43814;BME280;29669;55.706;37.656;2022-11-20T11:30:16;100496.56;;;0.48;69.03
43814;BME280;29669;55.706;37.656;2022-11-20T11:33:05;100491.63;;;0.45;69.29
43814;BME280;29669;55.706;37.656;2022-11-20T11:35:58;100495.16;;;0.43;69.13
43814;BME280;29669;55.706;37.656;2022-11-20T11:38:48;100500.84;;;0.32;69.31
43814;BME280;29669;55.706;37.656;2022-11-20T11:41:38;100489.94;;;0.29;69.31
43814;BME280;29669;55.706;37.656;2022-11-20T11:44:30;100494.41;;;0.25;69.50
43814;BME280;29669;55.706;37.656;2022-11-20T11:47:44;100498.94;;;0.20;69.39
43814;BME280;29669;55.706;37.656;2022-11-20T11:50:33;100490.63;;;0.17;69.36
43814;BME280;29669;55.706;37.656;2022-11-20T11:53:21;100494.81;;;0.18;69.38
43814;BME280;29669;55.706;37.656;2022-11-20T11:56:11;100499.16;;;0.16;69.18
43814;BME280;29669;55.706;37.656;2022-11-20T11:59:01;100506.06;;;0.14;69.22
43814;BME280;29669;55.706;37.656;2022-11-20T12:01:59;100511.16;;;0.14;69.13
43814;BME280;29669;55.706;37.656;2022-11-20T12:04:52;100519.38;;;0.03;69.17
43814;BME280;29669;55.706;37.656;2022-11-20T12:07:43;100516.31;;;-0.04;69.13
43814;BME280;29669;55.706;37.656;2022-11-20T12:10:44;100517.38;;;-0.08;69.35
43814;BME280;29669;55.706;37.656;2022-11-20T12:16:21;100521.41;;;-0.04;69.24
43814;BME280;29669;55.706;37.656;2022-11-20T12:19:12;100521.66;;;-0.08;69.06
43814;BME280;29669;55.706;37.656;2022-11-20T12:25:06;100522.06;;;-0.16;68.95
43814;BME280;29669;55.706;37.656;2022-11-20T12:43:25;100512.16;;;-0.22;68.60
43814;BME280;29669;55.706;37.656;2022-11-20T12:46:42;100518.31;;;-0.26;68.93
43814;BME280;29669;55.706;37.656;2022-11-20T12:49:47;100519.22;;;-0.27;68.99
43814;BME280;29669;55.706;37.656;2022-11-20T13:01:42;100524.91;;;-0.22;68.60
43814;BME280;29669;55.706;37.656;2022-11-20T13:07:25;100529.25;;;-0.24;68.81
43814;BME280;29669;55.706;37.656;2022-11-20T13:10:19;100529.25;;;-0.24;68.71
43814;BME280;29669;55.706;37.656;2022-11-20T13:18:46;100533.59;;;-0.26;68.70
43814;BME280;29669;55.706;37.656;2022-11-20T13:21:44;100532.09;;;-0.30;68.84
43814;BME280;29669;55.706;37.656;2022-11-20T13:24:33;100533.69;;;-0.27;68.77
43814;BME280;29669;55.706;37.656;2022-11-20T13:27:22;100536.16;;;-0.26;68.75
43814;BME280;29669;55.706;37.656;2022-11-20T13:30:14;100547.78;;;-0.20;68.62
43814;BME280;29669;55.706;37.656;2022-11-20T13:33:06;100543.50;;;-0.20;68.49
43814;BME280;29669;55.706;37.656;2022-11-20T13:35:59;100558.16;;;-0.23;68.56
43814;BME280;29669;55.706;37.656;2022-11-20T13:38:50;100554.94;;;-0.27;68.50
43814;BME280;29669;55.706;37.656;2022-11-20T13:41:38;100550.72;;;-0.28;68.38
43814;BME280;29669;55.706;37.656;2022-11-20T13:44:34;100549.88;;;-0.28;68.67
43814;BME280;29669;55.706;37.656;2022-11-20T13:47:31;100556.72;;;-0.29;68.41
43814;BME280;29669;55.706;37.656;2022-11-20T13:51:17;100560.91;;;-0.28;68.49
43814;BME280;29669;55.706;37.656;2022-11-20T13:54:27;100569.31;;;-0.26;68.52
43814;BME280;29669;55.706;37.656;2022-11-20T13:57:39;100566.69;;;-0.24;68.38
43814;BME280;29669;55.706;37.656;2022-11-20T14:00:29;100564.06;;;-0.23;68.53
43814;BME280;29669;55.706;37.656;2022-11-20T14:03:23;100565.72;;;-0.22;68.40
43814;BME280;29669;55.706;37.656;2022-11-20T14:06:40;100563.09;;;-0.20;68.59
43814;BME280;29669;55.706;37.656;2022-11-20T14:09:32;100563.69;;;-0.15;68.45
43814;BME280;29669;55.706;37.656;2022-11-20T14:12:39;100566.19;;;-0.14;68.65
43814;BME280;29669;55.706;37.656;2022-11-20T14:16:23;100570.22;;;-0.10;68.41
43814;BME280;29669;55.706;37.656;2022-11-20T14:24:10;100593.50;;;-0.16;68.21
43814;BME280;29669;55.706;37.656;2022-11-20T14:27:10;100590.94;;;-0.16;68.47
43814;BME280;29669;55.706;37.656;2022-11-20T14:34:20;100589.28;;;-0.17;68.44
43814;BME280;29669;55.706;37.656;2022-11-20T14:42:44;100597.84;;;-0.18;68.59
43814;BME280;29669;55.706;37.656;2022-11-20T14:50:51;100616.44;;;-0.16;68.46
43814;BME280;29669;55.706;37.656;2022-11-20T15:02:11;100605.34;;;-0.15;68.26
43814;BME280;29669;55.706;37.656;2022-11-20T15:05:13;100600.22;;;-0.15;68.53
43814;BME280;29669;55.706;37.656;2022-11-20T15:08:11;100600.16;;;-0.13;68.32
43814;BME280;29669;55.706;37.656;2022-11-20T15:11:25;100604.44;;;-0.14;68.42
43814;BME280;29669;55.706;37.656;2022-11-20T15:14:30;100603.63;;;-0.14;68.28
43814;BME280;29669;55.706;37.656;2022-11-20T15:21:00;100594.25;;;-0.14;68.63
43814;BME280;29669;55.706;37.656;2022-11-20T15:24:54;100600.22;;;-0.15;68.45
43814;BME280;29669;55.706;37.656;2022-11-20T15:28:02;100589.13;;;-0.14;68.55
43814;BME280;29669;55.706;37.656;2022-11-20T15:30:52;100591.59;;;-0.12;68.38
43814;BME280;29669;55.706;37.656;2022-11-20T15:34:38;100579.72;;;-0.13;68.49
43814;BME280;29669;55.706;37.656;2022-11-20T15:37:28;100590.63;;;-0.10;68.55
43814;BME280;29669;55.706;37.656;2022-11-20T15:40:17;100588.97;;;-0.11;68.56
43814;BME280;29669;55.706;37.656;2022-11-20T15:43:05;100594.00;;;-0.09;68.50
43814;BME280;29669;55.706;37.656;2022-11-20T15:46:02;100597.38;;;-0.09;68.52
43814;BME280;29669;55.706;37.656;2022-11-20T15:48:54;100594.00;;;-0.09;68.45
43814;BME280;29669;55.706;37.656;2022-11-20T15:52:21;100598.13;;;-0.07;68.32
43814;BME280;29669;55.706;37.656;2022-11-20T15:55:10;100584.63;;;-0.09;68.47
43814;BME280;29669;55.706;37.656;2022-11-20T15:57:59;100582.91;;;-0.08;68.47
43814;BME280;29669;55.706;37.656;2022-11-20T16:00:46;100586.88;;;-0.03;68.60
43814;BME280;29669;55.706;37.656;2022-11-20T16:03:37;100597.66;;;0.03;68.54
43814;BME280;29669;55.706;37.656;2022-11-20T16:06:37;100610.34;;;0.04;68.43
43814;BME280;29669;55.706;37.656;2022-11-20T16:09:31;100612.00;;;0.05;68.31
43814;BME280;29669;55.706;37.656;2022-11-20T16:12:23;100598.41;;;0.05;68.19
43814;BME280;29669;55.706;37.656;2022-11-20T16:15:33;100596.84;;;0.02;68.28
43814;BME280;29669;55.706;37.656;2022-11-20T16:18:56;100591.81;;;0.00;68.30
43814;BME280;29669;55.706;37.656;2022-11-20T16:21:45;100591.91;;;-0.01;68.32
43814;BME280;29669;55.706;37.656;2022-11-20T16:24:34;100588.59;;;-0.03;68.31
43814;BME280;29669;55.706;37.656;2022-11-20T16:27:33;100586.13;;;-0.05;68.20
43814;BME280;29669;55.706;37.656;2022-11-20T16:30:22;100579.34;;;-0.06;68.26
43814;BME280;29669;55.706;37.656;2022-11-20T18:37:56;100615.69;;;0.17;67.83
43814;BME280;29669;55.706;37.656;2022-11-20T18:40:44;100619.00;;;0.19;67.66
43814;BME280;29669;55.706;37.656;2022-11-20T18:43:31;100609.66;;;0.18;67.86
43814;BME280;29669;55.706;37.656;2022-11-20T18:46:37;100616.56;;;0.16;67.79